sensor_id;sensor_type;location;lat;lon;timestamp;P1;durP1;ratioP1;P2;durP2;ratioP2
70406;SDS011;57821;52.202;0.154;2023-04-06T00:00:21;58.00;;;29.02;;
70406;SDS011;57821;52.202;0.154;2023-04-06T00:03:08;52.03;;;27.92;;
70406;SDS011;57821;52.202;0.154;2023-04-06T00:05:55;51.00;;;28.25;;
70406;SDS011;57821;52.202;0.154;2023-04-06T00:08:42;54.42;;;28.48;;
70406;SDS011;57821;52.202;0.154;2023-04-06T00:11:29;60.10;;;29.63;;
70406;SDS011;57821;52.202;0.154;2023-04-06T00:14:15;53.85;;;27.80;;
70406;SDS011;57821;52.202;0.154;2023-04-06T00:17:02;60.90;;;29.38;;
70406;SDS011;57821;52.202;0.154;2023-04-06T00:19:49;60.72;;;30.42;;
70406;SDS011;57821;52.202;0.154;2023-04-06T00:22:36;56.08;;;27.33;;
70406;SDS011;57821;52.202;0.154;2023-04-06T00:25:23;55.25;;;29.75;;
70406;SDS011;57821;52.202;0.154;2023-04-06T00:28:10;57.53;;;29.05;;
70406;SDS011;57821;52.202;0.154;2023-04-06T00:30:57;57.00;;;28.13;;
70406;SDS011;57821;52.202;0.154;2023-04-06T00:33:44;58.85;;;29.65;;
70406;SDS011;57821;52.202;0.154;2023-04-06T00:36:31;62.92;;;29.42;;
70406;SDS011;57821;52.202;0.154;2023-04-06T00:39:18;63.13;;;30.52;;
70406;SDS011;57821;52.202;0.154;2023-04-06T00:42:11;58.67;;;29.90;;
70406;SDS011;57821;52.202;0.154;2023-04-06T00:44:59;60.90;;;29.15;;
70406;SDS011;57821;52.202;0.154;2023-04-06T00:47:47;61.20;;;30.02;;
70406;SDS011;57821;52.202;0.154;2023-04-06T00:50:34;56.05;;;30.38;;
70406;SDS011;57821;52.202;0.154;2023-04-06T00:53:21;55.08;;;28.90;;
70406;SDS011;57821;52.202;0.154;2023-04-06T00:56:10;58.40;;;29.35;;
70406;SDS011;57821;52.202;0.154;2023-04-06T00:59:08;61.08;;;29.70;;
70406;SDS011;57821;52.202;0.154;2023-04-06T01:01:55;64.05;;;29.77;;
70406;SDS011;57821;52.202;0.154;2023-04-06T01:04:52;65.43;;;30.65;;
70406;SDS011;57821;52.202;0.154;2023-04-06T01:07:46;57.72;;;28.80;;
70406;SDS011;57821;52.202;0.154;2023-04-06T01:10:37;60.42;;;28.40;;
70406;SDS011;57821;52.202;0.154;2023-04-06T01:13:40;67.00;;;29.02;;
70406;SDS011;57821;52.202;0.154;2023-04-06T01:16:35;51.45;;;27.10;;
70406;SDS011;57821;52.202;0.154;2023-04-06T01:19:42;58.67;;;27.70;;
70406;SDS011;57821;52.202;0.154;2023-04-06T01:22:36;57.88;;;28.77;;
70406;SDS011;57821;52.202;0.154;2023-04-06T01:25:23;59.33;;;28.73;;
70406;SDS011;57821;52.202;0.154;2023-04-06T01:28:21;57.70;;;27.00;;
70406;SDS011;57821;52.202;0.154;2023-04-06T01:31:37;58.55;;;26.75;;
70406;SDS011;57821;52.202;0.154;2023-04-06T01:34:25;52.70;;;26.02;;
70406;SDS011;57821;52.202;0.154;2023-04-06T01:37:19;57.95;;;27.02;;
70406;SDS011;57821;52.202;0.154;2023-04-06T01:40:06;60.05;;;26.52;;
70406;SDS011;57821;52.202;0.154;2023-04-06T01:43:05;48.35;;;24.42;;
70406;SDS011;57821;52.202;0.154;2023-04-06T01:45:58;52.17;;;26.30;;
70406;SDS011;57821;52.202;0.154;2023-04-06T01:48:51;48.83;;;23.90;;
70406;SDS011;57821;52.202;0.154;2023-04-06T01:51:46;50.28;;;24.65;;
70406;SDS011;57821;52.202;0.154;2023-04-06T01:54:33;45.30;;;22.40;;
70406;SDS011;57821;52.202;0.154;2023-04-06T01:57:40;48.10;;;23.05;;
70406;SDS011;57821;52.202;0.154;2023-04-06T02:00:34;42.47;;;21.60;;
70406;SDS011;57821;52.202;0.154;2023-04-06T02:03:22;44.33;;;21.85;;
70406;SDS011;57821;52.202;0.154;2023-04-06T02:06:17;38.58;;;19.85;;
70406;SDS011;57821;52.202;0.154;2023-04-06T02:09:04;41.92;;;19.52;;
70406;SDS011;57821;52.202;0.154;2023-04-06T02:11:51;42.75;;;21.27;;
70406;SDS011;57821;52.202;0.154;2023-04-06T02:14:38;38.55;;;19.75;;
70406;SDS011;57821;52.202;0.154;2023-04-06T02:17:26;40.17;;;18.95;;
70406;SDS011;57821;52.202;0.154;2023-04-06T02:20:13;39.42;;;19.52;;
70406;SDS011;57821;52.202;0.154;2023-04-06T02:23:00;36.50;;;17.45;;
70406;SDS011;57821;52.202;0.154;2023-04-06T02:25:46;36.88;;;18.02;;
70406;SDS011;57821;52.202;0.154;2023-04-06T02:28:33;38.83;;;18.25;;
70406;SDS011;57821;52.202;0.154;2023-04-06T02:31:20;36.45;;;17.42;;
70406;SDS011;57821;52.202;0.154;2023-04-06T02:34:08;32.25;;;16.55;;
70406;SDS011;57821;52.202;0.154;2023-04-06T02:36:55;34.97;;;17.45;;
70406;SDS011;57821;52.202;0.154;2023-04-06T02:39:41;34.72;;;16.52;;
70406;SDS011;57821;52.202;0.154;2023-04-06T02:42:28;28.85;;;15.45;;
70406;SDS011;57821;52.202;0.154;2023-04-06T02:45:15;30.98;;;16.10;;
70406;SDS011;57821;52.202;0.154;2023-04-06T02:48:06;34.15;;;16.30;;
70406;SDS011;57821;52.202;0.154;2023-04-06T02:50:53;30.23;;;14.60;;
70406;SDS011;57821;52.202;0.154;2023-04-06T02:53:39;29.50;;;15.18;;
70406;SDS011;57821;52.202;0.154;2023-04-06T02:56:26;33.78;;;15.07;;
70406;SDS011;57821;52.202;0.154;2023-04-06T02:59:13;31.13;;;14.73;;
70406;SDS011;57821;52.202;0.154;2023-04-06T03:02:06;31.02;;;14.73;;
70406;SDS011;57821;52.202;0.154;2023-04-06T03:04:54;28.75;;;13.88;;
70406;SDS011;57821;52.202;0.154;2023-04-06T03:07:46;26.60;;;12.88;;
70406;SDS011;57821;52.202;0.154;2023-04-06T03:10:44;23.73;;;12.43;;
70406;SDS011;57821;52.202;0.154;2023-04-06T03:13:31;26.48;;;11.57;;
70406;SDS011;57821;52.202;0.154;2023-04-06T03:16:18;25.63;;;12.43;;
70406;SDS011;57821;52.202;0.154;2023-04-06T03:19:05;22.13;;;10.65;;
70406;SDS011;57821;52.202;0.154;2023-04-06T03:21:54;23.17;;;11.85;;
70406;SDS011;57821;52.202;0.154;2023-04-06T03:24:43;26.30;;;11.57;;
70406;SDS011;57821;52.202;0.154;2023-04-06T03:27:30;22.20;;;10.75;;
70406;SDS011;57821;52.202;0.154;2023-04-06T03:30:18;20.63;;;10.55;;
70406;SDS011;57821;52.202;0.154;2023-04-06T03:33:04;22.65;;;10.30;;
70406;SDS011;57821;52.202;0.154;2023-04-06T03:35:58;22.75;;;11.18;;
70406;SDS011;57821;52.202;0.154;2023-04-06T03:38:45;18.38;;;9.57;;
70406;SDS011;57821;52.202;0.154;2023-04-06T03:41:33;23.00;;;9.77;;
70406;SDS011;57821;52.202;0.154;2023-04-06T03:44:26;21.38;;;9.52;;
70406;SDS011;57821;52.202;0.154;2023-04-06T03:47:12;19.70;;;9.18;;
70406;SDS011;57821;52.202;0.154;2023-04-06T03:50:00;18.10;;;8.70;;
70406;SDS011;57821;52.202;0.154;2023-04-06T03:52:48;20.08;;;9.85;;
70406;SDS011;57821;52.202;0.154;2023-04-06T03:55:35;19.08;;;8.73;;
70406;SDS011;57821;52.202;0.154;2023-04-06T03:58:22;19.00;;;9.15;;
70406;SDS011;57821;52.202;0.154;2023-04-06T04:01:09;20.17;;;9.23;;
70406;SDS011;57821;52.202;0.154;2023-04-06T04:03:55;18.95;;;8.68;;
70406;SDS011;57821;52.202;0.154;2023-04-06T04:06:42;19.00;;;8.45;;
70406;SDS011;57821;52.202;0.154;2023-04-06T04:09:29;18.42;;;8.68;;
70406;SDS011;57821;52.202;0.154;2023-04-06T04:12:16;17.35;;;8.10;;
70406;SDS011;57821;52.202;0.154;2023-04-06T04:15:03;18.42;;;8.43;;
70406;SDS011;57821;52.202;0.154;2023-04-06T04:17:50;19.08;;;9.00;;
70406;SDS011;57821;52.202;0.154;2023-04-06T04:20:37;19.42;;;8.57;;
70406;SDS011;57821;52.202;0.154;2023-04-06T04:23:24;18.48;;;9.43;;
70406;SDS011;57821;52.202;0.154;2023-04-06T04:26:11;20.33;;;8.80;;
70406;SDS011;57821;52.202;0.154;2023-04-06T04:28:59;19.17;;;8.82;;
70406;SDS011;57821;52.202;0.154;2023-04-06T04:31:46;22.60;;;10.05;;
70406;SDS011;57821;52.202;0.154;2023-04-06T04:34:36;17.30;;;8.65;;
70406;SDS011;57821;52.202;0.154;2023-04-06T04:37:25;19.58;;;9.40;;
70406;SDS011;57821;52.202;0.154;2023-04-06T04:40:14;20.42;;;9.48;;
70406;SDS011;57821;52.202;0.154;2023-04-06T04:43:08;21.15;;;10.38;;
70406;SDS011;57821;52.202;0.154;2023-04-06T04:45:55;18.20;;;9.70;;
70406;SDS011;57821;52.202;0.154;2023-04-06T04:48:52;17.33;;;9.23;;
70406;SDS011;57821;52.202;0.154;2023-04-06T04:51:39;19.05;;;10.00;;
70406;SDS011;57821;52.202;0.154;2023-04-06T04:54:41;20.42;;;9.82;;
70406;SDS011;57821;52.202;0.154;2023-04-06T04:57:32;22.00;;;10.95;;
70406;SDS011;57821;52.202;0.154;2023-04-06T05:00:19;19.48;;;9.85;;
70406;SDS011;57821;52.202;0.154;2023-04-06T05:03:06;20.77;;;10.57;;
70406;SDS011;57821;52.202;0.154;2023-04-06T05:05:56;18.45;;;8.77;;
70406;SDS011;57821;52.202;0.154;2023-04-06T05:08:46;23.48;;;9.18;;
70406;SDS011;57821;52.202;0.154;2023-04-06T05:11:33;16.45;;;9.32;;
70406;SDS011;57821;52.202;0.154;2023-04-06T05:14:20;16.80;;;9.40;;
70406;SDS011;57821;52.202;0.154;2023-04-06T05:17:07;17.55;;;9.93;;
70406;SDS011;57821;52.202;0.154;2023-04-06T05:19:54;17.65;;;8.90;;
70406;SDS011;57821;52.202;0.154;2023-04-06T05:22:44;14.98;;;8.50;;
70406;SDS011;57821;52.202;0.154;2023-04-06T05:25:31;18.90;;;9.93;;
70406;SDS011;57821;52.202;0.154;2023-04-06T05:28:29;17.88;;;9.68;;
70406;SDS011;57821;52.202;0.154;2023-04-06T05:31:16;19.10;;;10.45;;
70406;SDS011;57821;52.202;0.154;2023-04-06T05:34:09;18.27;;;9.43;;
70406;SDS011;57821;52.202;0.154;2023-04-06T05:36:56;23.73;;;10.68;;
70406;SDS011;57821;52.202;0.154;2023-04-06T05:39:44;19.35;;;10.15;;
70406;SDS011;57821;52.202;0.154;2023-04-06T05:42:41;19.30;;;10.27;;
70406;SDS011;57821;52.202;0.154;2023-04-06T05:45:30;20.15;;;11.32;;
70406;SDS011;57821;52.202;0.154;2023-04-06T05:48:17;19.73;;;10.57;;
70406;SDS011;57821;52.202;0.154;2023-04-06T05:51:04;22.25;;;11.32;;
70406;SDS011;57821;52.202;0.154;2023-04-06T05:53:59;20.60;;;10.98;;
70406;SDS011;57821;52.202;0.154;2023-04-06T05:56:47;22.95;;;11.45;;
70406;SDS011;57821;52.202;0.154;2023-04-06T05:59:34;20.38;;;11.32;;
70406;SDS011;57821;52.202;0.154;2023-04-06T06:02:22;26.13;;;13.13;;
70406;SDS011;57821;52.202;0.154;2023-04-06T06:05:11;24.13;;;12.52;;
70406;SDS011;57821;52.202;0.154;2023-04-06T06:08:00;25.63;;;12.55;;
70406;SDS011;57821;52.202;0.154;2023-04-06T06:10:47;27.70;;;13.48;;
70406;SDS011;57821;52.202;0.154;2023-04-06T06:13:36;29.08;;;13.57;;
70406;SDS011;57821;52.202;0.154;2023-04-06T06:16:23;26.92;;;13.43;;
70406;SDS011;57821;52.202;0.154;2023-04-06T06:19:09;27.23;;;14.43;;
70406;SDS011;57821;52.202;0.154;2023-04-06T06:21:56;28.55;;;14.30;;
70406;SDS011;57821;52.202;0.154;2023-04-06T06:24:43;31.73;;;15.18;;
70406;SDS011;57821;52.202;0.154;2023-04-06T06:27:31;29.27;;;15.02;;
70406;SDS011;57821;52.202;0.154;2023-04-06T06:30:18;30.40;;;15.70;;
70406;SDS011;57821;52.202;0.154;2023-04-06T06:33:08;32.92;;;16.15;;
70406;SDS011;57821;52.202;0.154;2023-04-06T06:35:55;31.23;;;16.33;;
70406;SDS011;57821;52.202;0.154;2023-04-06T06:38:42;33.22;;;17.02;;
70406;SDS011;57821;52.202;0.154;2023-04-06T06:41:31;33.88;;;16.92;;
70406;SDS011;57821;52.202;0.154;2023-04-06T06:44:18;32.47;;;17.65;;
70406;SDS011;57821;52.202;0.154;2023-04-06T06:47:05;32.22;;;16.45;;
70406;SDS011;57821;52.202;0.154;2023-04-06T06:49:52;29.67;;;15.35;;
70406;SDS011;57821;52.202;0.154;2023-04-06T06:52:39;30.70;;;15.45;;
70406;SDS011;57821;52.202;0.154;2023-04-06T06:55:26;26.55;;;15.10;;
70406;SDS011;57821;52.202;0.154;2023-04-06T06:58:13;30.48;;;15.30;;
70406;SDS011;57821;52.202;0.154;2023-04-06T07:01:00;27.85;;;14.52;;
70406;SDS011;57821;52.202;0.154;2023-04-06T07:03:49;29.27;;;13.77;;
70406;SDS011;57821;52.202;0.154;2023-04-06T07:06:36;29.02;;;13.95;;
70406;SDS011;57821;52.202;0.154;2023-04-06T07:09:23;26.38;;;12.95;;
70406;SDS011;57821;52.202;0.154;2023-04-06T07:12:10;25.88;;;13.43;;
70406;SDS011;57821;52.202;0.154;2023-04-06T07:14:57;26.77;;;12.52;;
70406;SDS011;57821;52.202;0.154;2023-04-06T07:17:44;28.77;;;14.10;;
70406;SDS011;57821;52.202;0.154;2023-04-06T07:20:31;27.60;;;13.60;;
70406;SDS011;57821;52.202;0.154;2023-04-06T07:23:18;26.75;;;13.20;;
70406;SDS011;57821;52.202;0.154;2023-04-06T07:26:05;21.25;;;11.70;;
70406;SDS011;57821;52.202;0.154;2023-04-06T07:28:52;20.73;;;11.75;;
70406;SDS011;57821;52.202;0.154;2023-04-06T07:31:40;21.42;;;12.55;;
70406;SDS011;57821;52.202;0.154;2023-04-06T07:34:27;21.08;;;11.43;;
70406;SDS011;57821;52.202;0.154;2023-04-06T07:37:14;22.90;;;12.00;;
70406;SDS011;57821;52.202;0.154;2023-04-06T07:40:02;25.20;;;11.90;;
70406;SDS011;57821;52.202;0.154;2023-04-06T07:42:49;20.52;;;11.48;;
70406;SDS011;57821;52.202;0.154;2023-04-06T07:45:36;21.10;;;12.13;;
70406;SDS011;57821;52.202;0.154;2023-04-06T07:48:23;20.73;;;12.45;;
70406;SDS011;57821;52.202;0.154;2023-04-06T07:51:10;19.95;;;11.30;;
70406;SDS011;57821;52.202;0.154;2023-04-06T07:53:59;19.98;;;11.15;;
70406;SDS011;57821;52.202;0.154;2023-04-06T07:56:45;19.63;;;11.02;;
70406;SDS011;57821;52.202;0.154;2023-04-06T07:59:32;18.33;;;10.73;;
70406;SDS011;57821;52.202;0.154;2023-04-06T08:02:19;20.67;;;10.60;;
70406;SDS011;57821;52.202;0.154;2023-04-06T08:05:06;18.35;;;10.02;;
70406;SDS011;57821;52.202;0.154;2023-04-06T08:07:53;16.05;;;9.80;;
70406;SDS011;57821;52.202;0.154;2023-04-06T08:10:40;17.38;;;9.85;;
70406;SDS011;57821;52.202;0.154;2023-04-06T08:13:27;17.25;;;9.88;;
70406;SDS011;57821;52.202;0.154;2023-04-06T08:16:14;17.92;;;8.82;;
70406;SDS011;57821;52.202;0.154;2023-04-06T08:19:01;17.27;;;7.97;;
70406;SDS011;57821;52.202;0.154;2023-04-06T08:21:48;12.40;;;7.85;;
70406;SDS011;57821;52.202;0.154;2023-04-06T08:24:35;14.68;;;8.85;;
70406;SDS011;57821;52.202;0.154;2023-04-06T08:27:22;15.45;;;7.85;;
70406;SDS011;57821;52.202;0.154;2023-04-06T08:30:09;13.70;;;7.80;;
70406;SDS011;57821;52.202;0.154;2023-04-06T08:32:56;10.48;;;6.90;;
70406;SDS011;57821;52.202;0.154;2023-04-06T08:35:43;13.40;;;8.07;;
70406;SDS011;57821;52.202;0.154;2023-04-06T08:38:30;13.05;;;7.50;;
70406;SDS011;57821;52.202;0.154;2023-04-06T08:41:17;14.63;;;7.50;;
70406;SDS011;57821;52.202;0.154;2023-04-06T08:44:04;12.93;;;7.57;;
70406;SDS011;57821;52.202;0.154;2023-04-06T08:46:51;12.05;;;6.97;;
70406;SDS011;57821;52.202;0.154;2023-04-06T08:49:38;11.30;;;6.68;;
70406;SDS011;57821;52.202;0.154;2023-04-06T08:52:25;11.73;;;7.05;;
70406;SDS011;57821;52.202;0.154;2023-04-06T08:55:13;9.95;;;6.47;;
70406;SDS011;57821;52.202;0.154;2023-04-06T08:58:01;10.68;;;6.07;;
70406;SDS011;57821;52.202;0.154;2023-04-06T09:00:48;10.18;;;6.47;;
70406;SDS011;57821;52.202;0.154;2023-04-06T09:03:36;10.52;;;6.18;;
70406;SDS011;57821;52.202;0.154;2023-04-06T09:06:26;10.75;;;6.80;;
70406;SDS011;57821;52.202;0.154;2023-04-06T09:09:13;11.38;;;6.18;;
70406;SDS011;57821;52.202;0.154;2023-04-06T09:12:00;11.77;;;6.40;;
70406;SDS011;57821;52.202;0.154;2023-04-06T09:14:47;11.52;;;7.00;;
70406;SDS011;57821;52.202;0.154;2023-04-06T09:17:33;11.00;;;6.47;;
70406;SDS011;57821;52.202;0.154;2023-04-06T09:20:24;11.43;;;5.90;;
70406;SDS011;57821;52.202;0.154;2023-04-06T09:23:18;9.87;;;5.97;;
70406;SDS011;57821;52.202;0.154;2023-04-06T09:29:03;11.05;;;5.57;;
70406;SDS011;57821;52.202;0.154;2023-04-06T09:31:50;10.82;;;5.90;;
70406;SDS011;57821;52.202;0.154;2023-04-06T09:34:38;11.43;;;5.93;;
70406;SDS011;57821;52.202;0.154;2023-04-06T09:37:27;10.40;;;5.10;;
70406;SDS011;57821;52.202;0.154;2023-04-06T09:40:14;8.15;;;4.43;;
70406;SDS011;57821;52.202;0.154;2023-04-06T09:43:01;6.07;;;2.88;;
70406;SDS011;57821;52.202;0.154;2023-04-06T09:45:48;6.13;;;2.20;;
70406;SDS011;57821;52.202;0.154;2023-04-06T09:48:35;6.38;;;2.45;;
70406;SDS011;57821;52.202;0.154;2023-04-06T09:51:23;4.22;;;1.83;;
70406;SDS011;57821;52.202;0.154;2023-04-06T09:54:15;7.82;;;1.58;;
70406;SDS011;57821;52.202;0.154;2023-04-06T10:00:04;6.20;;;2.67;;
70406;SDS011;57821;52.202;0.154;2023-04-06T10:03:11;5.15;;;2.13;;
70406;SDS011;57821;52.202;0.154;2023-04-06T10:06:10;4.72;;;1.92;;
70406;SDS011;57821;52.202;0.154;2023-04-06T10:11:48;8.15;;;2.17;;
70406;SDS011;57821;52.202;0.154;2023-04-06T10:14:35;5.32;;;2.00;;
70406;SDS011;57821;52.202;0.154;2023-04-06T10:17:22;4.68;;;2.15;;
70406;SDS011;57821;52.202;0.154;2023-04-06T10:20:15;4.68;;;1.60;;
70406;SDS011;57821;52.202;0.154;2023-04-06T10:23:08;4.55;;;1.70;;
70406;SDS011;57821;52.202;0.154;2023-04-06T10:26:00;4.45;;;1.58;;
70406;SDS011;57821;52.202;0.154;2023-04-06T10:28:48;4.40;;;1.63;;
70406;SDS011;57821;52.202;0.154;2023-04-06T10:31:39;5.22;;;2.00;;
70406;SDS011;57821;52.202;0.154;2023-04-06T10:34:34;4.45;;;1.80;;
70406;SDS011;57821;52.202;0.154;2023-04-06T10:37:21;5.18;;;2.10;;
70406;SDS011;57821;52.202;0.154;2023-04-06T10:40:18;7.88;;;2.67;;
70406;SDS011;57821;52.202;0.154;2023-04-06T10:43:21;6.00;;;2.63;;
70406;SDS011;57821;52.202;0.154;2023-04-06T10:46:09;8.52;;;3.13;;
70406;SDS011;57821;52.202;0.154;2023-04-06T10:48:57;6.25;;;2.70;;
70406;SDS011;57821;52.202;0.154;2023-04-06T10:51:44;7.68;;;3.55;;
70406;SDS011;57821;52.202;0.154;2023-04-06T10:54:31;7.82;;;3.30;;
70406;SDS011;57821;52.202;0.154;2023-04-06T10:57:27;7.55;;;3.28;;
70406;SDS011;57821;52.202;0.154;2023-04-06T11:00:15;7.78;;;3.83;;
70406;SDS011;57821;52.202;0.154;2023-04-06T11:03:02;6.72;;;3.40;;
70406;SDS011;57821;52.202;0.154;2023-04-06T11:05:49;11.18;;;4.13;;
70406;SDS011;57821;52.202;0.154;2023-04-06T11:08:37;8.20;;;4.35;;
70406;SDS011;57821;52.202;0.154;2023-04-06T11:11:25;6.95;;;4.15;;
70406;SDS011;57821;52.202;0.154;2023-04-06T11:14:13;10.68;;;4.57;;
70406;SDS011;57821;52.202;0.154;2023-04-06T11:17:00;8.10;;;4.07;;
70406;SDS011;57821;52.202;0.154;2023-04-06T11:19:47;8.82;;;4.80;;
70406;SDS011;57821;52.202;0.154;2023-04-06T11:22:33;8.75;;;4.57;;
70406;SDS011;57821;52.202;0.154;2023-04-06T11:25:20;8.73;;;4.80;;
70406;SDS011;57821;52.202;0.154;2023-04-06T11:28:07;8.20;;;4.95;;
70406;SDS011;57821;52.202;0.154;2023-04-06T11:30:54;10.07;;;4.95;;
70406;SDS011;57821;52.202;0.154;2023-04-06T11:33:42;8.57;;;5.40;;
70406;SDS011;57821;52.202;0.154;2023-04-06T11:36:28;10.45;;;4.95;;
70406;SDS011;57821;52.202;0.154;2023-04-06T11:39:19;9.20;;;4.72;;
70406;SDS011;57821;52.202;0.154;2023-04-06T11:42:07;9.43;;;4.68;;
70406;SDS011;57821;52.202;0.154;2023-04-06T11:44:56;8.55;;;3.60;;
70406;SDS011;57821;52.202;0.154;2023-04-06T11:47:44;6.28;;;2.83;;
70406;SDS011;57821;52.202;0.154;2023-04-06T11:50:31;11.00;;;3.08;;
70406;SDS011;57821;52.202;0.154;2023-04-06T11:53:18;7.47;;;3.38;;
70406;SDS011;57821;52.202;0.154;2023-04-06T11:56:05;7.35;;;3.20;;
70406;SDS011;57821;52.202;0.154;2023-04-06T11:58:54;9.80;;;3.40;;
70406;SDS011;57821;52.202;0.154;2023-04-06T12:01:44;10.45;;;4.57;;
70406;SDS011;57821;52.202;0.154;2023-04-06T12:04:32;7.65;;;4.45;;
70406;SDS011;57821;52.202;0.154;2023-04-06T12:07:19;10.10;;;4.70;;
70406;SDS011;57821;52.202;0.154;2023-04-06T12:10:06;7.65;;;4.10;;
70406;SDS011;57821;52.202;0.154;2023-04-06T12:12:53;11.50;;;4.95;;
70406;SDS011;57821;52.202;0.154;2023-04-06T12:15:40;9.05;;;3.95;;
70406;SDS011;57821;52.202;0.154;2023-04-06T12:18:27;8.68;;;3.53;;
70406;SDS011;57821;52.202;0.154;2023-04-06T12:21:13;9.75;;;3.88;;
70406;SDS011;57821;52.202;0.154;2023-04-06T12:24:00;9.88;;;3.55;;
70406;SDS011;57821;52.202;0.154;2023-04-06T12:26:47;8.45;;;2.92;;
70406;SDS011;57821;52.202;0.154;2023-04-06T12:29:39;8.35;;;2.60;;
70406;SDS011;57821;52.202;0.154;2023-04-06T12:32:26;7.82;;;2.30;;
70406;SDS011;57821;52.202;0.154;2023-04-06T12:35:13;11.68;;;2.70;;
70406;SDS011;57821;52.202;0.154;2023-04-06T12:38:00;9.38;;;2.30;;
70406;SDS011;57821;52.202;0.154;2023-04-06T12:40:47;9.23;;;2.42;;
70406;SDS011;57821;52.202;0.154;2023-04-06T12:43:33;11.05;;;2.03;;
70406;SDS011;57821;52.202;0.154;2023-04-06T12:46:20;6.97;;;1.73;;
70406;SDS011;57821;52.202;0.154;2023-04-06T12:49:07;7.88;;;2.10;;
70406;SDS011;57821;52.202;0.154;2023-04-06T12:51:54;6.60;;;1.80;;
70406;SDS011;57821;52.202;0.154;2023-04-06T12:54:41;10.05;;;1.80;;
70406;SDS011;57821;52.202;0.154;2023-04-06T12:57:28;6.68;;;1.33;;
70406;SDS011;57821;52.202;0.154;2023-04-06T13:00:15;8.30;;;1.50;;
70406;SDS011;57821;52.202;0.154;2023-04-06T13:03:02;6.90;;;2.42;;
70406;SDS011;57821;52.202;0.154;2023-04-06T13:05:50;7.32;;;2.40;;
70406;SDS011;57821;52.202;0.154;2023-04-06T13:08:37;6.15;;;1.17;;
70406;SDS011;57821;52.202;0.154;2023-04-06T13:11:25;7.63;;;1.35;;
70406;SDS011;57821;52.202;0.154;2023-04-06T13:14:14;5.85;;;1.27;;
70406;SDS011;57821;52.202;0.154;2023-04-06T13:17:01;5.18;;;1.55;;
70406;SDS011;57821;52.202;0.154;2023-04-06T13:19:48;8.10;;;1.70;;
70406;SDS011;57821;52.202;0.154;2023-04-06T13:22:34;8.15;;;1.80;;
70406;SDS011;57821;52.202;0.154;2023-04-06T13:25:21;5.57;;;1.52;;
70406;SDS011;57821;52.202;0.154;2023-04-06T13:28:08;7.95;;;2.60;;
70406;SDS011;57821;52.202;0.154;2023-04-06T13:30:57;9.68;;;1.88;;
70406;SDS011;57821;52.202;0.154;2023-04-06T13:33:45;5.25;;;1.55;;
70406;SDS011;57821;52.202;0.154;2023-04-06T13:36:32;8.88;;;1.75;;
70406;SDS011;57821;52.202;0.154;2023-04-06T13:39:19;7.95;;;1.95;;
70406;SDS011;57821;52.202;0.154;2023-04-06T13:42:05;7.03;;;2.38;;
70406;SDS011;57821;52.202;0.154;2023-04-06T13:44:52;8.60;;;3.65;;
70406;SDS011;57821;52.202;0.154;2023-04-06T13:47:39;10.88;;;2.60;;
70406;SDS011;57821;52.202;0.154;2023-04-06T13:50:26;7.93;;;2.40;;
70406;SDS011;57821;52.202;0.154;2023-04-06T13:53:14;7.38;;;2.33;;
70406;SDS011;57821;52.202;0.154;2023-04-06T13:56:00;7.53;;;2.30;;
70406;SDS011;57821;52.202;0.154;2023-04-06T13:58:47;7.00;;;2.05;;
70406;SDS011;57821;52.202;0.154;2023-04-06T14:01:34;7.95;;;2.00;;
70406;SDS011;57821;52.202;0.154;2023-04-06T14:04:21;6.90;;;2.10;;
70406;SDS011;57821;52.202;0.154;2023-04-06T14:07:08;6.68;;;2.55;;
70406;SDS011;57821;52.202;0.154;2023-04-06T14:09:55;8.07;;;2.40;;
70406;SDS011;57821;52.202;0.154;2023-04-06T14:12:42;9.82;;;2.67;;
70406;SDS011;57821;52.202;0.154;2023-04-06T14:15:29;11.38;;;2.25;;
70406;SDS011;57821;52.202;0.154;2023-04-06T14:18:16;5.78;;;2.30;;
70406;SDS011;57821;52.202;0.154;2023-04-06T14:21:03;8.20;;;2.00;;
70406;SDS011;57821;52.202;0.154;2023-04-06T14:23:50;6.07;;;1.63;;
70406;SDS011;57821;52.202;0.154;2023-04-06T14:26:37;7.75;;;2.83;;
70406;SDS011;57821;52.202;0.154;2023-04-06T14:29:25;6.15;;;1.92;;
70406;SDS011;57821;52.202;0.154;2023-04-06T14:32:11;5.85;;;1.60;;
70406;SDS011;57821;52.202;0.154;2023-04-06T14:34:58;6.65;;;1.38;;
70406;SDS011;57821;52.202;0.154;2023-04-06T14:37:45;5.80;;;1.45;;
70406;SDS011;57821;52.202;0.154;2023-04-06T14:40:34;8.35;;;1.73;;
70406;SDS011;57821;52.202;0.154;2023-04-06T14:43:21;5.97;;;1.25;;
70406;SDS011;57821;52.202;0.154;2023-04-06T14:46:08;6.63;;;1.33;;
70406;SDS011;57821;52.202;0.154;2023-04-06T14:48:55;7.60;;;2.72;;
70406;SDS011;57821;52.202;0.154;2023-04-06T14:51:45;4.18;;;1.10;;
70406;SDS011;57821;52.202;0.154;2023-04-06T14:54:32;4.60;;;1.40;;
70406;SDS011;57821;52.202;0.154;2023-04-06T14:57:19;6.13;;;1.50;;
70406;SDS011;57821;52.202;0.154;2023-04-06T15:00:06;6.68;;;1.40;;
70406;SDS011;57821;52.202;0.154;2023-04-06T15:02:53;7.57;;;1.63;;
70406;SDS011;57821;52.202;0.154;2023-04-06T15:05:40;6.78;;;1.48;;
70406;SDS011;57821;52.202;0.154;2023-04-06T15:08:27;5.35;;;1.40;;
70406;SDS011;57821;52.202;0.154;2023-04-06T15:11:14;9.52;;;1.48;;
70406;SDS011;57821;52.202;0.154;2023-04-06T15:14:00;8.98;;;1.55;;
70406;SDS011;57821;52.202;0.154;2023-04-06T15:16:47;7.90;;;1.50;;
70406;SDS011;57821;52.202;0.154;2023-04-06T15:19:34;7.10;;;1.33;;
70406;SDS011;57821;52.202;0.154;2023-04-06T15:22:21;4.70;;;1.10;;
70406;SDS011;57821;52.202;0.154;2023-04-06T15:25:08;6.57;;;0.90;;
70406;SDS011;57821;52.202;0.154;2023-04-06T15:27:55;7.78;;;1.40;;
70406;SDS011;57821;52.202;0.154;2023-04-06T15:30:43;8.13;;;1.40;;
70406;SDS011;57821;52.202;0.154;2023-04-06T15:33:30;8.63;;;1.80;;
70406;SDS011;57821;52.202;0.154;2023-04-06T15:39:11;4.85;;;1.52;;
70406;SDS011;57821;52.202;0.154;2023-04-06T15:41:57;8.65;;;1.70;;
70406;SDS011;57821;52.202;0.154;2023-04-06T15:44:45;8.32;;;2.15;;
70406;SDS011;57821;52.202;0.154;2023-04-06T15:47:32;6.55;;;1.60;;
70406;SDS011;57821;52.202;0.154;2023-04-06T15:50:19;5.10;;;1.25;;
70406;SDS011;57821;52.202;0.154;2023-04-06T15:53:05;4.55;;;1.33;;
70406;SDS011;57821;52.202;0.154;2023-04-06T15:56:02;4.55;;;0.77;;
70406;SDS011;57821;52.202;0.154;2023-04-06T15:58:50;4.00;;;0.90;;
70406;SDS011;57821;52.202;0.154;2023-04-06T16:01:37;3.08;;;0.68;;
70406;SDS011;57821;52.202;0.154;2023-04-06T16:04:24;6.72;;;0.90;;
70406;SDS011;57821;52.202;0.154;2023-04-06T16:07:11;3.72;;;0.70;;
70406;SDS011;57821;52.202;0.154;2023-04-06T16:09:58;2.95;;;0.70;;
70406;SDS011;57821;52.202;0.154;2023-04-06T16:12:45;3.90;;;0.70;;
70406;SDS011;57821;52.202;0.154;2023-04-06T16:15:32;4.00;;;1.00;;
70406;SDS011;57821;52.202;0.154;2023-04-06T16:18:18;6.30;;;1.08;;
70406;SDS011;57821;52.202;0.154;2023-04-06T16:21:05;6.53;;;0.95;;
70406;SDS011;57821;52.202;0.154;2023-04-06T16:23:52;6.78;;;1.00;;
70406;SDS011;57821;52.202;0.154;2023-04-06T16:26:39;4.70;;;0.90;;
70406;SDS011;57821;52.202;0.154;2023-04-06T16:29:26;5.70;;;1.10;;
70406;SDS011;57821;52.202;0.154;2023-04-06T16:32:13;4.70;;;0.90;;
70406;SDS011;57821;52.202;0.154;2023-04-06T16:35:01;5.68;;;0.98;;
70406;SDS011;57821;52.202;0.154;2023-04-06T16:37:49;5.55;;;1.13;;
70406;SDS011;57821;52.202;0.154;2023-04-06T16:40:36;6.57;;;1.00;;
70406;SDS011;57821;52.202;0.154;2023-04-06T16:43:22;4.95;;;0.90;;
70406;SDS011;57821;52.202;0.154;2023-04-06T16:46:09;6.78;;;1.40;;
70406;SDS011;57821;52.202;0.154;2023-04-06T16:48:56;7.32;;;1.23;;
70406;SDS011;57821;52.202;0.154;2023-04-06T16:51:44;8.02;;;1.33;;